Disclaimer

Please do not use the information listed here in-flight or in-navigation, as they are not provided to us by the airports but are provided by volunteers, so they might be outdated.

Search


Regions


Airport information page

Radio informations:
KRAKOW TWR - 123.25 MHz
Automatic Terminal Information Service (ATIS) - 126.125 MHz

Airport informations:
Latitude: 50° 04' 39.83" N
Longitude: 019° 47' 05.41" E
Elevation: 791 feet - 241 meters
Operating hours: Remarks
Operating agency: Civil government, landing fees and diplomatic clearance may be required
Timezone: UTC+1(+2DT) - Last Sunday in March to last Sunday in October
Fuel: Jet A1+, Jet A1 with icing inhibitor.

100/130 octane gasoline, leaded, MIL-L-5572F (GREEN)

Runway information:
07/25 - 8366 x 197 feet< - >2550 x 60 meters

Recent METARs:
EPKK 192100Z 06012KT 5000 -SNRA BR OVC007 M00/M01 Q1021
EPKK 192130Z 06013KT 7000 -FZDZ BKN007 M00/M01 Q1021
EPKK 192200Z 06012KT 9000 -FZDZ BKN006 M00/M01 Q1022

Airport on the map: